Terminal Aerodrome Forecast
Issued by NWS Northern Indiana

Home | Current Version | Previous Version | Graphics & Text | Print | Product List | Glossary On
Versions: 1 2 3 4 5 6 7 8 9 10 11 12 13
000
FTUS43 KIWX 190500 RRA
TAFFWA
TAF
KFWA 190542Z 1906/2006 23012KT P6SM BKN040
     FM191300 18016KT 3SM -SN BR OVC025 WS020/21050KT
      TEMPO 1914/1917 2SM -SN BR OVC020
     FM191700 23018G26KT 5SM -SN OVC025
     FM192200 26018G27KT P6SM OVC018
     FM200300 26015G21KT P6SM BKN025=

USA.gov is the U.S. government's official web portal to all federal, state and local government web resources and services.